Weather observations for the past three days for
Mesquite, Mesquite Metro Airport
| Date | Time (cdt) | Wind (kph) | Vis. (km) | Weather | Sky Cond. | Temperature (ºC) | Relative Humidity | Wind Chill (°C) | Heat Index (°C) | Pressure | Precipitation (cm) | ||||||
|---|---|---|---|---|---|---|---|---|---|---|---|---|---|---|---|---|---|
| Air | Dwpt | 6 hour | altimeter (cm) | sea level (mb) | 1 hr | 3 hr | 6 hr | ||||||||||
| Max. | Min. | ||||||||||||||||
| 06 | 19:50 | N 11 | 16.09 | Overcast | OVC015 | 14 | 12 | 88% | 76.12 | 0.0 | |||||||
| 06 | 18:52 | N 11 | 16.09 | Overcast | OVC015 | 14 | 12 | 88% | 76.07 | 0.0 | |||||||
| 06 | 17:50 | N 13 G 28 | 16.09 | Overcast | OVC014 | 14 | 12 | 88% | 76.07 | 0.0 | |||||||
| 06 | 15:50 | N 11 | 11.27 | Overcast | OVC014 | 14 | 12 | 88% | 76.07 | 0.0 | |||||||
| 06 | 13:50 | N 13 | 16.09 | Overcast | OVC013 | 14 | 11 | 82% | 76.05 | 0.0 | |||||||
| 06 | 12:50 | N 24 G 41 | 16.09 | Overcast | OVC013 | 14 | 11 | 82% | 76 | 0.0 | |||||||
| 06 | 11:50 | N 20 G 30 | 16.09 | Overcast | BKN013 OVC026 | 14 | 11 | 82% | 76 | 0.0 | |||||||
| 06 | 10:50 | N 11 | 16.09 | Overcast | OVC015 | 13 | 10 | 82% | 76.1 | 0.0 | |||||||
| 06 | 09:50 | N 19 G 26 | 11.27 | Overcast | OVC013 | 13 | 9 | 77% | 76.12 | 0.0 | |||||||
| 06 | 08:50 | N 19 G 26 | 11.27 | Overcast | OVC015 | 13 | 9 | 77% | 76.05 | 0.0 | |||||||
| 06 | 07:50 | NW 20 G 28 | 12.87 | Overcast | OVC019 | 13 | 9 | 77% | 75.92 | 0.0 | |||||||
| 06 | 06:50 | NW 20 G 28 | 12.87 | Overcast | OVC019 | 13 | 9 | 77% | 75.92 | 0.0 | |||||||
| 06 | 06:35 | N 22 | 16.09 | Overcast | OVC019 | 13.6 | 9.1 | 74% | 75.9 | 0.0 | |||||||
| 06 | 06:15 | N 17 | 16.09 | Overcast | OVC019 | 14 | 9.3 | 74% | 75.87 | 0.0 | |||||||
| 06 | 05:55 | N 17 G 26 | 16.09 | Overcast | OVC019 | 14.3 | 9.1 | 71% | 75.84 | 0.0 | |||||||
| 06 | 05:35 | N 15 | 16.09 | Overcast | OVC019 | 14.5 | 9.3 | 71% | 75.84 | 0.0 | |||||||
| 06 | 05:15 | N 15 | 16.09 | Overcast | OVC019 | 14.6 | 9.5 | 72% | 75.79 | 0.0 | |||||||
| 06 | 04:55 | N 17 | 16.09 | Overcast | OVC019 | 14.7 | 9.5 | 71% | 75.79 | 0.0 | |||||||
| 06 | 04:35 | N 19 | 16.09 | Overcast | OVC019 | 15 | 9.8 | 71% | 75.79 | 0.0 | |||||||
| 06 | 04:15 | N 11 | 16.09 | Overcast | OVC019 | 15.1 | 10.5 | 74% | 75.77 | 0.0 | |||||||
| 06 | 03:55 | N 13 | 16.09 | Overcast | OVC019 | 15.1 | 10.5 | 74% | 75.77 | 0.0 | |||||||
| 06 | 03:35 | N 9 | 16.09 | Overcast | OVC019 | 15.2 | 10.3 | 73% | 75.74 | 0.0 | |||||||
| 06 | 03:15 | N 15 | 16.09 | Overcast | OVC019 | 15.5 | 10.6 | 73% | 75.72 | 0.0 | |||||||
| 06 | 02:55 | N 15 | 16.09 | Overcast | OVC021 | 15.9 | 11.3 | 74% | 75.74 | 0.0 | |||||||
| 06 | 02:35 | N 19 | 16.09 | Overcast | OVC023 | 16.2 | 11.5 | 74% | 75.74 | 0.0 | |||||||
| 06 | 02:15 | N 19 G 28 | 16.09 | Overcast | OVC023 | 16.6 | 12 | 74% | 75.74 | 0.0 | |||||||
| 06 | 01:55 | N 15 | 16.09 | Overcast | OVC025 | 17 | 12.5 | 75% | 75.74 | 0.0 | |||||||
| 06 | 01:35 | N 15 | 16.09 | Overcast | OVC027 | 17.5 | 13 | 75% | 75.72 | 0.0 | |||||||
| 06 | 01:15 | N 17 | 16.09 | Overcast | OVC027 | 17.7 | 13 | 74% | 75.72 | 0.0 | |||||||
| 06 | 00:55 | N 15 | 16.09 | Overcast | OVC029 | 18.1 | 13.3 | 27.4 | 18.1 | 74% | 75.72 | 0.0 | |||||
| 06 | 00:35 | N 17 | 16.09 | Overcast | OVC029 | 18.6 | 13.7 | 73% | 75.72 | 0.0 | |||||||
| 06 | 00:15 | N 20 | 16.09 | Overcast | OVC029 | 19.4 | 14.4 | 73% | 75.72 | 0.0 | |||||||
| 05 | 23:55 | N 19 | 16.09 | Overcast | OVC031 | 20.2 | 15 | 72% | 75.69 | 0.0 | |||||||
| 05 | 23:35 | N 17 | 16.09 | Overcast | OVC031 | 20.7 | 15.2 | 71% | 75.67 | 0.0 | |||||||
| 05 | 23:15 | N 17 | 16.09 | Overcast | OVC031 | 21.1 | 15.5 | 71% | 75.64 | 0.0 | |||||||
| 05 | 22:55 | N 22 | 16.09 | Overcast | OVC031 | 21.5 | 15.7 | 70% | 75.64 | 0.0 | |||||||
| 05 | 22:35 | N 20 G 30 | 16.09 | Overcast | OVC029 | 22.6 | 16.6 | 69% | 75.62 | 0.0 | |||||||
| 05 | 22:15 | N 20 | 16.09 | Overcast | OVC029 | 23.2 | 16.5 | 66% | 75.62 | 0.0 | |||||||
| 05 | 21:55 | N 15 | 16.09 | Overcast | OVC029 | 23.3 | 16.7 | 67% | 75.54 | 0.0 | |||||||
| 05 | 21:35 | N 7 | 16.09 | Overcast | OVC029 | 23.8 | 16.9 | 65% | 75.49 | 0.0 | |||||||
| 05 | 21:15 | Calm | 16.09 | Overcast | BKN031 OVC037 | 26 | 20.8 | 73% | 27 | 75.46 | 0.0 | ||||||
| 05 | 20:55 | Calm | 16.09 | Overcast | OVC031 | 25.8 | 21 | 75% | 27 | 75.46 | 0.0 | ||||||
| 05 | 19:50 | S 9 | 16.09 | Mostly Cloudy | SCT050 BKN070 | 27 | 21 | 70% | 29 | 75.41 | 0.0 | ||||||
| 05 | 18:50 | S 20 | 16.09 | Partly Cloudy | SCT033 | 28 | 21 | 66% | 30 | 75.34 | 0.0 | ||||||
| 05 | 17:50 | SE 24 | 16.09 | Partly Cloudy | SCT033 | 31 | 21 | 55% | 34 | 75.34 | 0.0 | ||||||
| 05 | 16:50 | S 26 | 16.09 | Partly Cloudy | SCT033 | 31 | 22 | 59% | 35 | 75.31 | 0.0 | ||||||
| 05 | 15:50 | S 24 G 33 | 16.09 | Partly Cloudy | SCT033 | 31 | 21 | 55% | 34 | 75.36 | 0.0 | ||||||
| 05 | 14:50 | S 26 G 37 | 16.09 | Partly Cloudy | SCT040 | 29 | 21 | 62% | 31 | 75.39 | 0.0 | ||||||
| 05 | 13:50 | S 30 G 37 | 16.09 | Partly Cloudy | SCT027 | 28 | 21 | 66% | 30 | 75.41 | 0.0 | ||||||
| 05 | 12:50 | S 30 G 41 | 16.09 | Partly Cloudy | SCT025 | 27 | 20 | 66% | 29 | 75.44 | 0.0 | ||||||
| 05 | 11:50 | S 37 G 46 | 16.09 | Mostly Cloudy and Breezy | BKN021 | 27 | 19 | 62% | 28 | 75.44 | 0.0 | ||||||
| 05 | 10:50 | S 30 G 52 | 16.09 | Mostly Cloudy | BKN021 | 26 | 19 | 65% | 27 | 75.44 | 0.0 | ||||||
| 05 | 09:50 | S 28 G 41 | 16.09 | Overcast | OVC021 | 24 | 19 | 74% | 25 | 75.46 | 0.0 | ||||||
| 05 | 08:50 | S 26 G 41 | 16.09 | Overcast | OVC017 | 23 | 19 | 78% | 75.44 | 0.0 | |||||||
| 05 | 07:50 | S 26 G 37 | 16.09 | Overcast | OVC019 | 22 | 18 | 78% | 75.41 | 0.0 | |||||||
| 05 | 06:50 | S 30 G 41 | 16.09 | Overcast | OVC015 | 22 | 18 | 78% | 75.39 | 0.0 | |||||||
| 05 | 06:15 | S 24 G 33 | 16.09 | Overcast | OVC019 | 21.5 | 18.1 | 81% | 75.36 | 0.0 | |||||||
| 05 | 05:55 | S 24 G 39 | 16.09 | Overcast | OVC019 | 21.5 | 18 | 81% | 75.34 | 0.0 | |||||||
| 05 | 05:35 | S 26 G 37 | 16.09 | Overcast | OVC019 | 21.5 | 18 | 81% | 75.36 | 0.0 | |||||||
| 05 | 05:15 | S 22 G 31 | 16.09 | Overcast | OVC019 | 21.5 | 18 | 81% | 75.36 | 0.0 | |||||||
| 05 | 04:55 | S 26 G 33 | 16.09 | Overcast | OVC019 | 21.5 | 18 | 81% | 75.39 | 0.0 | |||||||
| 05 | 04:35 | S 22 | 16.09 | Overcast | OVC017 | 21.6 | 18 | 80% | 75.41 | 0.0 | |||||||
| 05 | 04:15 | S 30 G 41 | 16.09 | Overcast | OVC017 | 21.6 | 18 | 80% | 75.39 | 0.0 | |||||||
| 05 | 03:55 | S 26 G 39 | 16.09 | Overcast | OVC017 | 21.6 | 18 | 80% | 75.39 | 0.0 | |||||||
| 05 | 03:35 | S 30 G 39 | 16.09 | Overcast | OVC017 | 21.5 | 18 | 81% | 75.41 | 0.0 | |||||||
| 05 | 03:15 | S 31 G 44 | 16.09 | Overcast | OVC017 | 21.5 | 18 | 81% | 75.41 | 0.0 | |||||||
| 05 | 02:55 | S 28 G 33 | 16.09 | Overcast | OVC019 | 21.5 | 18 | 81% | 75.41 | 0.0 | |||||||
| 05 | 02:35 | S 24 G 39 | 16.09 | Mostly Cloudy | BKN019 | 21.2 | 17.8 | 81% | 75.46 | 0.0 | |||||||
| 05 | 02:15 | S 26 | 16.09 | Partly Cloudy | SCT021 | 21.1 | 17.6 | 81% | 75.46 | 0.0 | |||||||
| 05 | 01:55 | S 26 G 33 | 16.09 | Fair | CLR | 21.2 | 17.6 | 80% | 75.46 | 0.0 | |||||||
| 05 | 01:35 | S 26 G 31 | 16.09 | Fair | CLR | 21.4 | 17.6 | 79% | 75.49 | 0.0 | |||||||
| 05 | 01:15 | S 24 G 33 | 16.09 | Fair | CLR | 21.5 | 17.5 | 78% | 75.49 | 0.0 | |||||||
| 05 | 00:55 | S 22 G 31 | 16.09 | Fair | CLR | 21.5 | 17.3 | 25.3 | 21.5 | 77% | 75.49 | 0.0 | |||||
| 05 | 00:35 | S 22 G 30 | 16.09 | Fair | CLR | 21.6 | 17.1 | 76% | 75.51 | 0.0 | |||||||
| 05 | 00:15 | S 24 G 31 | 16.09 | Fair | CLR | 21.6 | 17 | 75% | 75.54 | 0.0 | |||||||
| 04 | 23:55 | S 22 | 16.09 | Fair | CLR | 21.7 | 17 | 75% | 75.51 | 0.0 | |||||||
| 04 | 23:35 | S 19 | 16.09 | Fair | CLR | 21.7 | 16.7 | 73% | 75.51 | 0.0 | |||||||
| 04 | 23:15 | S 17 | 16.09 | Fair | CLR | 21.7 | 16.7 | 73% | 75.54 | 0.0 | |||||||
| 04 | 22:55 | S 17 | 16.09 | Fair | CLR | 21.8 | 16.6 | 72% | 75.54 | 0.0 | |||||||
| 04 | 22:35 | S 19 | 16.09 | Fair | CLR | 21.8 | 16.5 | 72% | 75.54 | 0.0 | |||||||
| 04 | 22:15 | S 17 | 16.09 | Fair | CLR | 22 | 16.5 | 71% | 75.54 | 0.0 | |||||||
| 04 | 21:55 | S 15 | 16.09 | Fair | CLR | 22.2 | 16.3 | 69% | 75.54 | 0.0 | |||||||
| 04 | 21:35 | S 17 | 16.09 | Fair | CLR | 22.5 | 16.2 | 68% | 75.51 | 0.0 | |||||||
| 04 | 21:15 | S 15 | 16.09 | Fair | CLR | 22.7 | 16.2 | 67% | 75.51 | 0.0 | |||||||
| 04 | 20:55 | S 17 | 16.09 | Fair | CLR | 23 | 16.2 | 66% | 75.51 | 0.0 | |||||||
| 04 | 19:50 | S 22 | 16.09 | Fair | CLR | 24 | 16 | 61% | 25 | 75.51 | 0.0 | ||||||
| 04 | 18:50 | S 28 G 44 | 16.09 | Partly Cloudy | SCT040 | 26 | 16 | 54% | 27 | 75.57 | 0.0 | ||||||
| 04 | 17:50 | S 33 G 48 | 16.09 | Partly Cloudy and Breezy | SCT044 | 27 | 16 | 51% | 27 | 75.59 | 0.0 | ||||||
| 04 | 16:50 | S 33 G 46 | 16.09 | Partly Cloudy and Breezy | SCT045 | 27 | 16 | 51% | 27 | 75.62 | 0.0 | ||||||
| 04 | 15:50 | S 28 G 52 | 16.09 | Partly Cloudy | SCT045 | 27 | 16 | 51% | 27 | 75.69 | 0.0 | ||||||
| 04 | 14:50 | S 31 G 52 | 16.09 | Fair | CLR | 27 | 14 | 45% | 27 | 75.77 | 0.0 | ||||||
| 04 | 13:50 | S 33 G 48 | 16.09 | Fair and Breezy | CLR | 27 | 14 | 45% | 27 | 75.84 | 0.0 | ||||||
| 04 | 12:50 | S 28 G 52 | 16.09 | Fair | CLR | 26 | 12 | 42% | 26 | 75.92 | 0.0 | ||||||
| 04 | 11:50 | S 28 G 52 | 16.09 | Fair | CLR | 24 | 11 | 44% | 25 | 76 | 0.0 | ||||||
| 04 | 10:50 | S 24 G 50 | 16.09 | Fair | CLR | 23 | 13 | 53% | 76.02 | 0.0 | |||||||
| 04 | 09:50 | S 24 G 41 | 16.09 | Fair | CLR | 21 | 13 | 60% | 76.05 | 0.0 | |||||||
| 04 | 08:50 | S 20 G 37 | 16.09 | Fair | CLR | 18 | 12 | 68% | 76.07 | 0.0 | |||||||
| 04 | 07:50 | S 15 | 16.09 | Fair | CLR | 16 | 12 | 77% | 76.07 | 0.0 | |||||||
| 04 | 06:50 | S 9 | 16.09 | Fair | CLR | 13 | 11 | 88% | 76.05 | 0.0 | |||||||
| 04 | 06:35 | S 9 | 16.09 | Fair | CLR | 13 | 10.3 | 84% | 76.05 | 0.0 | |||||||
| 04 | 06:15 | S 11 | 16.09 | Fair | CLR | 13.7 | 10.7 | 82% | 76.05 | 0.0 | |||||||
| 04 | 05:55 | S 13 | 16.09 | Fair | CLR | 14 | 11 | 82% | 76.05 | 0.0 | |||||||
| 04 | 05:35 | S 15 | 16.09 | Fair | CLR | 13.9 | 11 | 83% | 76.05 | 0.0 | |||||||
| 04 | 05:15 | S 13 | 16.09 | Fair | CLR | 13.5 | 10.3 | 81% | 76.05 | 0.0 | |||||||
| 04 | 04:55 | S 9 | 16.09 | Fair | CLR | 13.9 | 10.2 | 79% | 76.05 | 0.0 | |||||||
| 04 | 04:35 | S 11 | 16.09 | Fair | CLR | 14.4 | 10.5 | 78% | 76.05 | 0.0 | |||||||
| 04 | 04:15 | S 15 | 16.09 | Fair | CLR | 15 | 10.7 | 76% | 76.07 | 0.0 | |||||||
| 04 | 03:55 | S 15 | 16.09 | Fair | CLR | 14.6 | 10.7 | 78% | 76.07 | 0.0 | |||||||
| 04 | 03:35 | S 17 | 16.09 | Fair | CLR | 13.6 | 10.6 | 82% | 76.07 | 0.0 | |||||||
| 04 | 03:15 | S 13 | 16.09 | Fair | CLR | 12.7 | 9.7 | 82% | 76.1 | 0.0 | |||||||
| 04 | 02:55 | S 11 | 16.09 | Fair | CLR | 12.6 | 9.5 | 82% | 76.1 | 0.0 | |||||||
| 04 | 02:35 | S 11 | 16.09 | Fair | CLR | 12.8 | 9.4 | 80% | 76.1 | 0.0 | |||||||
| 04 | 02:15 | S 9 | 16.09 | Fair | CLR | 13.1 | 9.7 | 80% | 76.12 | 0.0 | |||||||
| 04 | 01:55 | S 11 | 16.09 | Fair | CLR | 13.5 | 9.7 | 78% | 76.15 | 0.0 | |||||||
| 04 | 01:35 | S 9 | 16.09 | Fair | CLR | 13.8 | 10 | 78% | 76.17 | 0.0 | |||||||
| 04 | 01:15 | S 9 | 16.09 | Fair | CLR | 13.5 | 10 | 80% | 76.17 | 0.0 | |||||||
| 04 | 00:55 | S 11 | 16.09 | Fair | CLR | 13.5 | 9.8 | 25.5 | 13.5 | 79% | 76.2 | 0.0 | |||||
| 04 | 00:35 | S 11 | 16.09 | Fair | CLR | 13.9 | 9.6 | 75% | 76.2 | 0.0 | |||||||
| 04 | 00:15 | S 9 | 16.09 | Fair | CLR | 14.2 | 9.6 | 74% | 76.23 | 0.0 | |||||||
| 03 | 23:55 | S 9 | 16.09 | Fair | CLR | 14.5 | 9.7 | 73% | 76.23 | 0.0 | |||||||
| 03 | 23:35 | S 9 | 16.09 | Fair | CLR | 15.1 | 9.8 | 71% | 76.25 | 0.0 | |||||||
| 03 | 23:15 | S 9 | 16.09 | Fair | CLR | 15.2 | 9.5 | 69% | 76.23 | 0.0 | |||||||
| 03 | 22:55 | S 9 | 16.09 | Fair | CLR | 15.8 | 9.8 | 68% | 76.25 | 0.0 | |||||||
| 03 | 22:35 | S 9 | 16.09 | Fair | CLR | 15.7 | 9.5 | 67% | 76.23 | 0.0 | |||||||
| 03 | 22:15 | S 9 | 16.09 | Fair | CLR | 16.3 | 9.6 | 65% | 76.23 | 0.0 | |||||||
| 03 | 21:55 | S 9 | 16.09 | Fair | CLR | 17.1 | 9.5 | 61% | 76.23 | 0.0 | |||||||
| 03 | 21:35 | S 9 | 16.09 | Fair | CLR | 17.7 | 9.3 | 58% | 76.23 | 0.0 | |||||||
| 03 | 21:15 | S 7 | 16.09 | Fair | CLR | 18 | 9.2 | 57% | 76.23 | 0.0 | |||||||
| 03 | 20:55 | S 7 | 16.09 | Fair | CLR | 18.5 | 9.4 | 56% | 76.23 | 0.0 | |||||||
| Date | Time (cdt) | Wind (kph) | Vis. (km) | Weather | Sky Cond. | Air | Dwpt | Max. | Min. | Relative Humidity | Wind Chill (°C) | Heat Index (°C) | altimeter (cm) | sea level (mb) | 1 hr | 3 hr | 6 hr |
| 6 hour | |||||||||||||||||
| Temperature (ºC) | Pressure | Precipitation (cm) | |||||||||||||||